createdAt,value
2023-03-05T00:00:39.882Z,7.97
2023-03-05T00:03:22.691Z,9.20
2023-03-05T00:06:06.670Z,9.10
2023-03-05T00:08:49.775Z,8.90
2023-03-05T00:11:34.512Z,8.10
2023-03-05T00:14:17.290Z,8.30
2023-03-05T00:17:00.149Z,8.88
2023-03-05T00:19:42.945Z,10.00
2023-03-05T00:22:25.841Z,9.02
2023-03-05T00:25:09.506Z,8.18
2023-03-05T00:27:53.710Z,8.13
2023-03-05T00:30:36.927Z,8.82
2023-03-05T00:33:19.769Z,9.38
2023-03-05T00:36:06.970Z,9.48
2023-03-05T00:38:49.943Z,10.15
2023-03-05T00:41:32.750Z,11.52
2023-03-05T00:44:17.051Z,11.30
2023-03-05T00:47:00.039Z,9.80
2023-03-05T00:49:42.870Z,9.48
2023-03-05T00:52:26.386Z,8.38
2023-03-05T00:55:09.678Z,10.10
2023-03-05T00:57:52.602Z,8.52
2023-03-05T01:00:38.277Z,8.93
2023-03-05T01:03:21.532Z,8.40
2023-03-05T01:06:08.170Z,9.18
2023-03-05T01:08:51.421Z,10.07
2023-03-05T01:11:34.266Z,10.45
2023-03-05T01:14:17.132Z,9.52
2023-03-05T01:17:01.321Z,10.73
2023-03-05T01:19:44.488Z,10.05
2023-03-05T01:22:27.476Z,10.18
2023-03-05T01:25:11.125Z,9.50
2023-03-05T01:27:53.965Z,10.53
2023-03-05T01:30:36.832Z,9.30
2023-03-05T01:33:21.523Z,11.13
2023-03-05T01:36:08.690Z,10.10
2023-03-05T01:38:51.902Z,9.80
2023-03-05T01:41:35.496Z,9.57
2023-03-05T01:44:27.892Z,10.30
2023-03-05T01:47:10.729Z,10.95
2023-03-05T01:49:55.283Z,11.73
2023-03-05T01:52:41.444Z,12.15
2023-03-05T01:55:26.141Z,10.30
2023-03-05T01:58:12.867Z,10.80
2023-03-05T02:00:56.781Z,10.88
2023-03-05T02:03:40.377Z,9.50
2023-03-05T02:06:24.645Z,10.27
2023-03-05T02:09:07.631Z,10.70
2023-03-05T02:11:50.786Z,9.55
2023-03-05T02:14:34.724Z,12.43
2023-03-05T02:17:18.372Z,11.75
2023-03-05T02:20:07.455Z,11.77
2023-03-05T02:22:51.966Z,11.00
2023-03-05T02:25:35.016Z,10.68
2023-03-05T02:28:24.123Z,10.55
2023-03-05T02:31:10.995Z,12.18
2023-03-05T02:33:55.912Z,11.45
2023-03-05T02:36:40.066Z,10.30
2023-03-05T02:39:25.220Z,9.45
2023-03-05T02:42:08.545Z,9.15
2023-03-05T02:44:52.162Z,8.63
2023-03-05T02:47:35.015Z,10.57
2023-03-05T02:50:18.340Z,10.73
2023-03-05T02:53:01.175Z,10.00
2023-03-05T02:55:49.305Z,10.32
2023-03-05T02:58:32.208Z,9.73
2023-03-05T03:01:15.103Z,10.50
2023-03-05T03:03:57.965Z,9.80
2023-03-05T03:06:40.767Z,8.77
2023-03-05T03:09:23.595Z,10.45
2023-03-05T03:12:08.687Z,11.30
2023-03-05T03:14:52.590Z,11.23
2023-03-05T03:17:36.857Z,9.23
2023-03-05T03:20:20.508Z,9.63
2023-03-05T03:23:03.815Z,11.25
2023-03-05T03:25:46.601Z,10.05
2023-03-05T03:28:30.796Z,10.75
2023-03-05T03:31:13.653Z,10.30
2023-03-05T03:33:56.510Z,11.02
2023-03-05T03:36:39.314Z,10.63
2023-03-05T03:39:23.683Z,9.75
2023-03-05T03:42:06.975Z,10.43
2023-03-05T03:44:51.901Z,12.45
2023-03-05T03:47:34.662Z,10.70
2023-03-05T03:50:17.816Z,11.63
2023-03-05T03:53:00.641Z,10.93
2023-03-05T03:55:44.026Z,10.50
2023-03-05T03:58:27.222Z,11.15
2023-03-05T04:01:11.448Z,14.55
2023-03-05T04:03:54.325Z,11.88
2023-03-05T04:06:37.207Z,13.18
2023-03-05T04:09:20.105Z,10.68
2023-03-05T04:12:03.079Z,11.10
2023-03-05T04:14:46.582Z,12.35
2023-03-05T04:17:30.769Z,11.27
2023-03-05T04:20:14.126Z,13.73
2023-03-05T04:22:57.020Z,10.82
2023-03-05T04:25:39.913Z,11.60
2023-03-05T04:28:22.758Z,10.18
2023-03-05T04:31:06.238Z,11.00
2023-03-05T04:33:50.449Z,12.93
2023-03-05T04:36:33.272Z,10.38
2023-03-05T04:39:16.420Z,12.60
2023-03-05T04:41:59.228Z,11.60
2023-03-05T04:44:42.021Z,10.60
2023-03-05T04:47:24.855Z,10.55
2023-03-05T04:50:10.905Z,10.60
2023-03-05T04:52:53.808Z,12.13
2023-03-05T04:55:36.669Z,11.38
2023-03-05T04:58:19.466Z,11.20
2023-03-05T05:01:03.563Z,13.63
2023-03-05T05:03:46.390Z,11.68
2023-03-05T05:06:30.631Z,13.02
2023-03-05T05:09:13.696Z,10.70
2023-03-05T05:11:56.514Z,11.13
2023-03-05T05:14:39.432Z,12.38
2023-03-05T05:17:22.214Z,10.75
2023-03-05T05:20:07.817Z,11.43
2023-03-05T05:22:52.168Z,11.32
2023-03-05T05:25:35.066Z,12.10
2023-03-05T05:28:17.885Z,11.13
2023-03-05T05:31:00.807Z,11.50
2023-03-05T05:33:44.411Z,12.20
2023-03-05T05:36:27.327Z,10.57
2023-03-05T05:39:11.854Z,11.30
2023-03-05T05:44:37.379Z,10.32
2023-03-05T05:47:20.374Z,12.05
2023-03-05T05:50:03.225Z,11.80
2023-03-05T05:52:46.029Z,12.40
2023-03-05T05:55:30.260Z,11.75
2023-03-05T05:58:13.054Z,11.80
2023-03-05T06:00:55.877Z,11.05
2023-03-05T06:03:38.666Z,11.13
2023-03-05T06:06:23.240Z,10.25
2023-03-05T06:09:06.587Z,11.52
2023-03-05T06:11:51.371Z,12.35
2023-03-05T06:14:34.207Z,11.63
2023-03-05T06:17:25.143Z,12.18
2023-03-05T06:20:13.704Z,10.70
2023-03-05T06:22:56.601Z,11.03
2023-03-05T06:25:39.445Z,10.77
2023-03-05T06:28:23.622Z,11.70
2023-03-05T06:31:08.768Z,11.27
2023-03-05T06:33:51.683Z,10.80
2023-03-05T06:36:34.570Z,11.60
2023-03-05T06:39:17.413Z,10.85
2023-03-05T06:42:00.253Z,11.23
2023-03-05T06:44:46.516Z,12.50
2023-03-05T06:47:30.032Z,13.38
2023-03-05T06:50:13.610Z,10.88
2023-03-05T06:52:56.492Z,11.47
2023-03-05T06:55:40.573Z,8.63
2023-03-05T06:58:23.893Z,10.10
2023-03-05T07:01:08.777Z,10.60
2023-03-05T07:03:53.181Z,10.48
2023-03-05T07:06:39.343Z,11.43
2023-03-05T07:09:22.248Z,9.77
2023-03-05T07:12:05.483Z,9.27
2023-03-05T07:14:48.277Z,8.35
2023-03-05T07:17:32.456Z,9.20
2023-03-05T07:20:15.699Z,9.18
2023-03-05T07:22:58.495Z,10.50
2023-03-05T07:25:41.318Z,8.50
2023-03-05T07:28:24.139Z,11.73
2023-03-05T07:31:09.341Z,11.73
2023-03-05T07:33:54.152Z,10.05
2023-03-05T07:36:38.201Z,8.48
2023-03-05T07:39:21.154Z,9.43
2023-03-05T07:42:04.423Z,7.88
2023-03-05T07:45:03.829Z,8.18
2023-03-05T07:47:46.649Z,7.43
2023-03-05T07:50:32.986Z,9.15
2023-03-05T07:53:16.358Z,7.07
2023-03-05T07:55:59.187Z,8.85
2023-03-05T07:58:42.024Z,8.20
2023-03-05T08:01:24.931Z,7.47
2023-03-05T08:04:08.993Z,6.60
2023-03-05T08:06:53.490Z,6.32
2023-03-05T08:12:19.054Z,5.95
2023-03-05T08:15:02.026Z,6.95
2023-03-05T08:17:44.845Z,6.75
2023-03-05T08:20:27.780Z,7.28
2023-03-05T08:23:11.950Z,7.38
2023-03-05T08:25:54.932Z,6.07
2023-03-05T08:28:38.155Z,7.82
2023-03-05T08:31:23.856Z,7.45
2023-03-05T08:34:07.575Z,6.40
2023-03-05T08:36:50.656Z,5.80
2023-03-05T08:39:34.801Z,5.80
2023-03-05T08:42:17.652Z,4.80
2023-03-05T08:45:00.403Z,4.82
2023-03-05T08:47:43.411Z,4.03
2023-03-05T08:50:26.196Z,4.78
2023-03-05T08:53:09.077Z,4.57
2023-03-05T08:55:56.783Z,5.82
2023-03-05T08:58:39.646Z,5.45
2023-03-05T09:01:22.735Z,4.95
2023-03-05T09:04:05.626Z,4.70
2023-03-05T09:06:48.472Z,4.13
2023-03-05T09:09:32.901Z,4.75
2023-03-05T09:12:17.046Z,4.82
2023-03-05T09:14:59.865Z,6.38
2023-03-05T09:17:43.112Z,4.90
2023-03-05T09:20:25.941Z,4.60
2023-03-05T09:23:08.752Z,5.07
2023-03-05T09:25:51.808Z,5.38
2023-03-05T09:28:35.967Z,4.30
2023-03-05T09:31:19.446Z,3.85
2023-03-05T09:34:02.271Z,4.68
2023-03-05T09:36:45.194Z,5.38
2023-03-05T09:39:28.018Z,4.20
2023-03-05T09:42:38.638Z,4.65
2023-03-05T09:45:28.383Z,4.72
2023-03-05T09:48:18.140Z,4.10
2023-03-05T09:51:03.162Z,5.05
2023-03-05T09:53:49.655Z,5.15
2023-03-05T09:56:36.657Z,4.65
2023-03-05T09:59:31.746Z,4.97
2023-03-05T10:02:20.674Z,3.78
2023-03-05T10:05:14.022Z,4.82
2023-03-05T10:08:02.175Z,4.20
2023-03-05T10:10:49.832Z,4.50
2023-03-05T10:13:39.403Z,4.13
2023-03-05T10:16:40.885Z,4.50
2023-03-05T10:19:48.095Z,3.40
2023-03-05T10:22:34.576Z,3.22
2023-03-05T10:25:24.815Z,3.20
2023-03-05T10:28:17.827Z,3.50
2023-03-05T10:31:12.884Z,3.33
2023-03-05T10:34:09.961Z,3.47
2023-03-05T10:37:18.738Z,3.08
2023-03-05T10:40:19.442Z,3.60
2023-03-05T10:43:09.499Z,3.28
2023-03-05T10:45:55.363Z,3.20
2023-03-05T10:48:43.895Z,3.25
2023-03-05T10:51:35.186Z,4.38
2023-03-05T10:54:26.503Z,3.90
2023-03-05T10:57:18.814Z,3.60
2023-03-05T11:00:14.322Z,3.20
2023-03-05T11:03:00.114Z,3.50
2023-03-05T11:05:45.745Z,4.18
2023-03-05T11:08:32.372Z,3.60
2023-03-05T11:11:18.879Z,3.80
2023-03-05T11:14:04.789Z,3.78
2023-03-05T11:16:51.504Z,3.40
2023-03-05T11:19:35.377Z,4.00
2023-03-05T11:22:20.677Z,3.38
2023-03-05T11:25:18.737Z,3.58
2023-03-05T11:28:04.492Z,5.63
2023-03-05T11:30:57.297Z,8.07
2023-03-05T11:33:40.124Z,10.15
2023-03-05T11:36:26.601Z,10.00
2023-03-05T11:39:17.099Z,10.18
2023-03-05T11:42:03.020Z,8.77
2023-03-05T11:44:50.838Z,8.57
2023-03-05T11:47:40.575Z,9.88
2023-03-05T11:50:26.674Z,8.90
2023-03-05T11:53:15.685Z,9.35
2023-03-05T11:56:04.764Z,7.82
2023-03-05T11:58:53.627Z,7.97
2023-03-05T12:01:44.504Z,6.43
2023-03-05T12:04:28.403Z,6.15
2023-03-05T12:07:17.319Z,5.65
2023-03-05T12:10:01.028Z,5.65
2023-03-05T12:12:49.452Z,5.43
2023-03-05T12:15:51.006Z,6.03
2023-03-05T12:18:42.390Z,6.20
2023-03-05T12:21:34.119Z,5.40
2023-03-05T12:24:37.399Z,4.95
2023-03-05T12:27:35.192Z,5.10
2023-03-05T12:30:56.812Z,5.47
2023-03-05T12:33:41.738Z,5.18
2023-03-05T12:36:39.854Z,6.15
2023-03-05T12:39:44.009Z,5.00
2023-03-05T12:42:47.788Z,5.32
2023-03-05T12:45:39.015Z,4.50
2023-03-05T12:48:45.902Z,4.25
2023-03-05T12:51:34.425Z,4.43
2023-03-05T12:54:28.656Z,4.35
2023-03-05T12:57:19.590Z,12.65
2023-03-05T13:00:08.085Z,6.63
2023-03-05T13:02:56.061Z,5.20
2023-03-05T13:05:40.471Z,4.43
2023-03-05T13:08:26.782Z,6.20
2023-03-05T13:11:17.408Z,5.82
2023-03-05T13:14:02.653Z,5.47
2023-03-05T13:16:45.542Z,5.10
2023-03-05T13:19:30.228Z,7.05
2023-03-05T13:22:14.392Z,5.32
2023-03-05T13:25:15.162Z,6.95
2023-03-05T13:28:03.933Z,5.70
2023-03-05T13:30:53.063Z,7.30
2023-03-05T13:33:37.273Z,5.15
2023-03-05T13:36:20.912Z,5.10
2023-03-05T13:39:06.710Z,6.50
2023-03-05T13:42:02.118Z,5.78
2023-03-05T13:44:44.997Z,5.65
2023-03-05T13:47:29.812Z,5.38
2023-03-05T13:50:26.050Z,5.35
2023-03-05T13:53:19.336Z,5.63
2023-03-05T13:56:05.728Z,5.70
2023-03-05T13:58:53.275Z,5.88
2023-03-05T14:01:43.768Z,5.32
2023-03-05T14:04:28.769Z,6.30
2023-03-05T14:07:29.323Z,5.95
2023-03-05T14:10:30.270Z,6.13
2023-03-05T14:13:19.039Z,6.00
2023-03-05T14:16:05.876Z,6.90
2023-03-05T14:18:57.151Z,8.93
2023-03-05T14:21:48.701Z,9.95
2023-03-05T14:24:32.204Z,9.07
2023-03-05T14:27:22.022Z,7.07
2023-03-05T14:30:15.921Z,6.75
2023-03-05T14:33:00.710Z,5.75
2023-03-05T14:35:50.451Z,6.72
2023-03-05T14:38:35.402Z,6.78
2023-03-05T14:41:23.777Z,8.07
2023-03-05T14:44:15.468Z,6.85
2023-03-05T14:46:59.734Z,7.05
2023-03-05T14:49:42.550Z,6.18
2023-03-05T14:52:26.653Z,6.32
2023-03-05T14:55:15.509Z,5.93
2023-03-05T14:58:02.410Z,6.75
2023-03-05T15:00:45.544Z,8.10
2023-03-05T15:03:29.703Z,7.65
2023-03-05T15:06:24.098Z,7.15
2023-03-05T15:09:09.201Z,6.88
2023-03-05T15:11:51.972Z,6.40
2023-03-05T15:14:34.785Z,5.40
2023-03-05T15:17:21.596Z,5.60
2023-03-05T15:20:08.071Z,10.85
2023-03-05T15:22:50.844Z,8.68
2023-03-05T15:25:34.250Z,8.02
2023-03-05T15:28:17.438Z,6.80
2023-03-05T15:31:00.620Z,6.80
2023-03-05T15:33:43.653Z,5.82
2023-03-05T15:36:27.823Z,6.22
2023-03-05T15:39:10.661Z,5.72
2023-03-05T15:41:54.091Z,7.03
2023-03-05T15:44:36.909Z,5.90
2023-03-05T15:47:19.693Z,6.40
2023-03-05T15:50:02.514Z,6.70
2023-03-05T15:52:46.690Z,7.65
2023-03-05T15:55:29.562Z,7.10
2023-03-05T15:58:14.997Z,7.55
2023-03-05T16:00:57.829Z,7.97
2023-03-05T16:03:40.702Z,7.43
2023-03-05T16:06:25.369Z,7.18
2023-03-05T16:09:09.919Z,6.68
2023-03-05T16:14:35.494Z,4.70
2023-03-05T16:17:20.496Z,5.40
2023-03-05T16:20:03.721Z,5.38
2023-03-05T16:22:46.522Z,4.70
2023-03-05T16:25:30.837Z,4.50
2023-03-05T16:28:13.698Z,3.90
2023-03-05T16:30:57.819Z,4.40
2023-03-05T16:33:40.581Z,3.78
2023-03-05T16:36:26.717Z,3.75
2023-03-05T16:39:09.542Z,3.42
2023-03-05T16:41:53.698Z,3.95
2023-03-05T16:44:36.510Z,4.38
2023-03-05T16:47:19.313Z,3.95
2023-03-05T16:50:02.364Z,3.33
2023-03-05T16:52:45.206Z,3.95
2023-03-05T16:55:28.142Z,4.05
2023-03-05T16:58:12.288Z,3.15
2023-03-05T17:00:55.153Z,3.63
2023-03-05T17:03:41.306Z,3.10
2023-03-05T17:06:26.363Z,3.30
2023-03-05T17:09:09.226Z,3.20
2023-03-05T17:11:52.199Z,3.20
2023-03-05T17:14:36.404Z,3.42
2023-03-05T17:17:19.247Z,3.28
2023-03-05T17:20:02.158Z,2.90
2023-03-05T17:22:45.088Z,5.85
2023-03-05T17:25:27.986Z,4.15
2023-03-05T17:28:10.940Z,10.63
2023-03-05T17:30:56.415Z,5.40
2023-03-05T17:33:41.479Z,6.50
2023-03-05T17:36:25.298Z,6.47
2023-03-05T17:39:08.789Z,4.55
2023-03-05T17:41:51.568Z,3.40
2023-03-05T17:44:34.420Z,5.32
2023-03-05T17:47:18.591Z,4.95
2023-03-05T17:50:02.038Z,5.03
2023-03-05T17:52:45.578Z,4.65
2023-03-05T17:55:28.941Z,4.22
2023-03-05T17:58:11.810Z,3.05
2023-03-05T18:00:54.689Z,3.00
2023-03-05T18:03:38.894Z,2.28
2023-03-05T18:06:21.848Z,2.42
2023-03-05T18:09:04.784Z,2.70
2023-03-05T18:11:47.590Z,2.85
2023-03-05T18:14:30.381Z,3.08
2023-03-05T18:17:13.209Z,4.70
2023-03-05T18:19:57.404Z,5.05
2023-03-05T18:22:40.224Z,7.43
2023-03-05T18:25:25.799Z,9.35
2023-03-05T18:28:11.826Z,9.43
2023-03-05T18:30:54.798Z,6.63
2023-03-05T18:33:38.788Z,4.93
2023-03-05T18:36:22.986Z,4.80
2023-03-05T18:39:05.762Z,3.00
2023-03-05T18:41:48.840Z,2.58
2023-03-05T18:44:31.623Z,2.67
2023-03-05T18:47:14.436Z,2.72
2023-03-05T18:49:57.311Z,2.20
2023-03-05T18:52:41.488Z,2.28
2023-03-05T18:55:26.302Z,2.75
2023-03-05T18:58:09.143Z,3.22
2023-03-05T19:00:52.076Z,3.97
2023-03-05T19:03:34.865Z,4.10
2023-03-05T19:06:17.883Z,3.38
2023-03-05T19:09:08.571Z,3.17
2023-03-05T19:11:51.469Z,3.30
2023-03-05T19:14:34.219Z,2.88
2023-03-05T19:17:17.202Z,3.20
2023-03-05T19:20:00.262Z,2.58
2023-03-05T19:22:43.642Z,3.08
2023-03-05T19:25:27.782Z,2.65
2023-03-05T19:28:10.778Z,2.33
2023-03-05T19:30:53.671Z,2.00
2023-03-05T19:33:36.533Z,2.22
2023-03-05T19:36:19.352Z,1.92
2023-03-05T19:39:03.953Z,1.90
2023-03-05T19:41:48.156Z,2.00
2023-03-05T19:44:31.424Z,1.90
2023-03-05T19:47:14.222Z,2.30
2023-03-05T19:49:57.041Z,2.00
2023-03-05T19:52:39.877Z,2.15
2023-03-05T19:55:22.724Z,2.05
2023-03-05T19:58:06.870Z,2.90
2023-03-05T20:00:49.687Z,3.13
2023-03-05T20:03:32.486Z,2.63
2023-03-05T20:06:15.716Z,2.30
2023-03-05T20:08:59.290Z,2.15
2023-03-05T20:11:42.790Z,2.23
2023-03-05T20:14:26.930Z,2.37
2023-03-05T20:17:09.838Z,2.03
2023-03-05T20:19:55.342Z,1.83
2023-03-05T20:22:38.178Z,2.10
2023-03-05T20:25:24.818Z,1.70
2023-03-05T20:28:08.197Z,1.80
2023-03-05T20:30:56.014Z,1.80
2023-03-05T20:33:39.783Z,1.83
2023-03-05T20:36:23.052Z,1.58
2023-03-05T20:39:07.368Z,1.60
2023-03-05T20:41:51.194Z,1.65
2023-03-05T20:44:33.990Z,1.63
2023-03-05T20:47:32.228Z,1.25
2023-03-05T20:50:16.352Z,1.42
2023-03-05T20:52:59.175Z,1.55
2023-03-05T20:55:42.773Z,1.80
2023-03-05T20:58:25.580Z,1.90
2023-03-05T21:01:08.557Z,1.80
2023-03-05T21:03:53.681Z,1.80
2023-03-05T21:06:36.776Z,1.58
2023-03-05T21:09:19.566Z,1.40
2023-03-05T21:12:02.391Z,1.70
2023-03-05T21:14:45.192Z,1.73
2023-03-05T21:17:27.982Z,1.63
2023-03-05T21:20:15.343Z,1.83
2023-03-05T21:22:59.487Z,1.50
2023-03-05T21:25:42.473Z,1.50
2023-03-05T21:28:26.098Z,1.90
2023-03-05T21:31:10.893Z,1.75
2023-03-05T21:33:53.757Z,1.90
2023-03-05T21:36:37.932Z,1.83
2023-03-05T21:39:20.755Z,1.65
2023-03-05T21:42:05.172Z,1.98
2023-03-05T21:44:47.979Z,2.20
2023-03-05T21:47:30.901Z,1.80
2023-03-05T21:50:15.973Z,1.95
2023-03-05T21:53:00.220Z,2.67
2023-03-05T21:55:47.883Z,2.58
2023-03-05T21:58:31.726Z,3.92
2023-03-05T22:01:16.244Z,2.83
2023-03-05T22:03:59.147Z,2.40
2023-03-05T22:06:41.976Z,2.00
2023-03-05T22:09:26.111Z,2.42
2023-03-05T22:12:10.209Z,2.13
2023-03-05T22:14:53.045Z,2.50
2023-03-05T22:17:35.902Z,3.42
2023-03-05T22:20:19.529Z,2.80
2023-03-05T22:23:02.314Z,2.20
2023-03-05T22:25:46.695Z,2.13
2023-03-05T22:28:30.720Z,1.98
2023-03-05T22:31:21.046Z,2.28
2023-03-05T22:34:03.955Z,2.30
2023-03-05T22:36:46.712Z,1.85
2023-03-05T22:39:29.547Z,2.20
2023-03-05T22:42:13.671Z,2.50
2023-03-05T22:44:58.118Z,2.75
2023-03-05T22:50:24.273Z,1.67
2023-03-05T22:53:07.370Z,1.92
2023-03-05T22:55:50.583Z,2.25
2023-03-05T22:58:36.162Z,2.30
2023-03-05T23:01:22.787Z,2.33
2023-03-05T23:04:18.216Z,2.42
2023-03-05T23:07:01.084Z,2.20
2023-03-05T23:09:43.916Z,2.50
2023-03-05T23:12:28.582Z,2.58
2023-03-05T23:15:15.468Z,2.75
2023-03-05T23:17:58.755Z,3.25
2023-03-05T23:20:42.168Z,4.00
2023-03-05T23:23:25.065Z,4.78
2023-03-05T23:26:07.905Z,3.97
2023-03-05T23:28:50.796Z,3.00
2023-03-05T23:31:34.968Z,3.72
2023-03-05T23:34:17.762Z,3.38
2023-03-05T23:37:01.619Z,2.53
2023-03-05T23:39:44.427Z,2.50
2023-03-05T23:42:27.244Z,2.72
2023-03-05T23:45:12.202Z,2.90
2023-03-05T23:47:56.832Z,2.30
2023-03-05T23:50:41.747Z,1.95
2023-03-05T23:53:27.281Z,2.05
2023-03-05T23:56:11.206Z,2.60
2023-03-05T23:58:56.106Z,2.35
